createdAt,value
2018-11-04T00:00:13.921Z,98083.00
2018-11-04T00:02:44.333Z,98083.00
2018-11-04T00:05:15.175Z,98082.00
2018-11-04T00:07:46.395Z,98081.00
2018-11-04T00:10:16.819Z,98081.00
2018-11-04T00:12:47.222Z,98063.00
2018-11-04T00:15:17.648Z,98063.00
2018-11-04T00:17:47.993Z,98067.00
2018-11-04T00:20:18.307Z,98067.00
2018-11-04T00:22:48.693Z,98061.00
2018-11-04T00:25:19.040Z,98053.00
2018-11-04T00:27:49.329Z,98045.00
2018-11-04T00:30:19.800Z,98044.00
2018-11-04T00:32:50.274Z,98043.00
2018-11-04T00:35:20.619Z,98042.00
2018-11-04T00:37:51.037Z,98043.00
2018-11-04T00:40:21.432Z,98042.00
2018-11-04T00:42:52.102Z,98040.00
2018-11-04T00:45:22.703Z,98043.00
2018-11-04T00:47:52.913Z,98040.00
2018-11-04T00:50:23.344Z,98033.00
2018-11-04T00:52:53.792Z,98030.00
2018-11-04T00:55:24.299Z,98030.00
2018-11-04T00:57:54.870Z,98029.00
2018-11-04T01:00:25.556Z,98022.00
2018-11-04T01:02:55.819Z,98015.00
2018-11-04T01:05:26.148Z,98016.00
2018-11-04T01:07:56.542Z,98025.00
2018-11-04T01:10:27.152Z,98024.00
2018-11-04T01:12:57.662Z,98021.00
2018-11-04T01:15:27.892Z,98017.00
2018-11-04T01:17:58.284Z,98012.00
2018-11-04T01:20:28.645Z,98017.00
2018-11-04T01:22:59.097Z,98020.00
2018-11-04T01:25:29.403Z,98022.00
2018-11-04T01:27:59.662Z,98024.00
2018-11-04T01:30:30.202Z,98027.00
2018-11-04T01:33:00.343Z,98023.00
2018-11-04T01:35:30.766Z,98021.00
2018-11-04T01:38:01.094Z,98019.00
2018-11-04T01:40:31.402Z,98029.00
2018-11-04T01:43:01.793Z,98026.00
2018-11-04T01:45:32.203Z,98029.00
2018-11-04T01:48:02.479Z,98024.00
2018-11-04T01:50:32.980Z,98021.00
2018-11-04T01:53:03.255Z,98016.00
2018-11-04T01:55:40.435Z,98018.00
2018-11-04T01:58:10.963Z,98011.00
2018-11-04T02:00:42.371Z,98007.00
2018-11-04T02:03:12.699Z,98001.00
2018-11-04T02:05:43.286Z,97990.00
2018-11-04T02:08:13.825Z,97992.00
2018-11-04T02:10:44.242Z,97985.00
2018-11-04T02:13:14.854Z,97985.00
2018-11-04T02:15:45.148Z,97983.00
2018-11-04T02:18:15.484Z,97993.00
2018-11-04T02:20:45.826Z,97995.00
2018-11-04T02:23:16.154Z,97990.00
2018-11-04T02:25:46.481Z,97988.00
2018-11-04T02:28:16.747Z,97996.00
2018-11-04T02:30:47.199Z,98002.00
2018-11-04T02:33:18.234Z,98012.00
2018-11-04T02:35:48.520Z,98021.00
2018-11-04T02:38:18.898Z,98014.00
2018-11-04T02:40:49.224Z,98021.00
2018-11-04T02:43:19.457Z,98027.00
2018-11-04T02:45:49.866Z,98035.00
2018-11-04T02:48:20.484Z,98033.00
2018-11-04T02:50:50.776Z,98028.00
2018-11-04T02:53:21.212Z,98028.00
2018-11-04T02:55:52.418Z,98027.00
2018-11-04T02:58:22.734Z,98029.00
2018-11-04T03:00:53.141Z,98041.00
2018-11-04T03:03:23.691Z,98036.00
2018-11-04T03:05:54.044Z,98028.00
2018-11-04T03:08:24.495Z,98029.00
2018-11-04T03:10:54.908Z,98032.00
2018-11-04T03:13:25.515Z,98033.00
2018-11-04T03:15:55.977Z,98037.00
2018-11-04T03:18:26.503Z,98036.00
2018-11-04T03:20:56.859Z,98031.00
2018-11-04T03:23:27.316Z,98032.00
2018-11-04T03:25:57.645Z,98026.00
2018-11-04T03:28:28.011Z,98022.00
2018-11-04T03:30:58.379Z,98024.00
2018-11-04T03:33:35.264Z,98024.00
2018-11-04T03:36:05.757Z,98021.00
2018-11-04T03:38:36.022Z,98011.00
2018-11-04T03:41:06.583Z,98010.00
2018-11-04T03:43:37.121Z,98007.00
2018-11-04T03:46:07.685Z,97998.00
2018-11-04T03:48:38.055Z,98002.00
2018-11-04T03:51:08.461Z,97993.00
2018-11-04T03:53:38.836Z,97977.00
2018-11-04T03:56:09.283Z,97972.00
2018-11-04T03:58:39.777Z,97969.00
2018-11-04T04:01:10.075Z,97968.00
2018-11-04T04:03:40.487Z,97963.00
2018-11-04T04:06:11.676Z,97959.00
2018-11-04T04:08:42.120Z,97958.00
2018-11-04T04:11:12.530Z,97953.00
2018-11-04T04:13:42.846Z,97950.00
2018-11-04T04:16:13.279Z,97953.00
2018-11-04T04:18:43.846Z,97949.00
2018-11-04T04:21:14.342Z,97941.00
2018-11-04T04:23:44.596Z,97941.00
2018-11-04T04:26:16.523Z,97939.00
2018-11-04T04:28:46.931Z,97934.00
2018-11-04T04:31:17.415Z,97930.00
2018-11-04T04:33:47.684Z,97922.00
2018-11-04T04:36:18.037Z,97925.00
2018-11-04T04:38:48.426Z,97918.00
2018-11-04T04:41:18.695Z,97920.00
2018-11-04T04:43:49.188Z,97929.00
2018-11-04T04:46:19.527Z,97928.00
2018-11-04T04:48:49.840Z,97932.00
2018-11-04T04:51:20.391Z,97931.00
2018-11-04T04:53:50.718Z,97933.00
2018-11-04T04:56:20.876Z,97936.00
2018-11-04T04:58:51.451Z,97935.00
2018-11-04T05:01:21.875Z,97931.00
2018-11-04T05:03:52.220Z,97922.00
2018-11-04T05:06:22.621Z,97924.00
2018-11-04T05:08:52.911Z,97922.00
2018-11-04T05:11:23.388Z,97919.00
2018-11-04T05:13:53.822Z,97922.00
2018-11-04T05:16:24.981Z,97924.00
2018-11-04T05:18:55.149Z,97927.00
2018-11-04T05:21:25.702Z,97928.00
2018-11-04T05:23:56.124Z,97936.00
2018-11-04T05:26:26.339Z,97936.00
2018-11-04T05:28:56.650Z,97936.00
2018-11-04T05:31:27.154Z,97940.00
2018-11-04T05:33:57.603Z,97940.00
2018-11-04T05:36:28.230Z,97943.00
2018-11-04T05:38:58.582Z,97943.00
2018-11-04T05:41:28.906Z,97951.00
2018-11-04T05:43:59.324Z,97957.00
2018-11-04T05:46:29.682Z,97960.00
2018-11-04T05:48:59.961Z,97963.00
2018-11-04T05:51:30.338Z,97965.00
2018-11-04T05:54:00.872Z,97961.00
2018-11-04T05:56:31.293Z,97963.00
2018-11-04T05:59:01.764Z,97967.00
2018-11-04T06:01:32.287Z,97966.00
2018-11-04T06:04:02.850Z,97957.00
2018-11-04T06:06:33.408Z,97959.00
2018-11-04T06:09:03.998Z,97963.00
2018-11-04T06:11:36.215Z,97955.00
2018-11-04T06:14:06.592Z,97947.00
2018-11-04T06:16:37.113Z,97949.00
2018-11-04T06:19:07.351Z,97956.00
2018-11-04T06:21:37.924Z,97959.00
2018-11-04T06:24:08.478Z,97964.00
2018-11-04T06:26:38.725Z,97960.00
2018-11-04T06:29:09.163Z,97966.00
2018-11-04T06:31:39.535Z,97964.00
2018-11-04T06:34:10.016Z,97965.00
2018-11-04T06:36:40.333Z,97968.00
2018-11-04T06:39:10.893Z,97972.00
2018-11-04T06:41:41.234Z,97969.00
2018-11-04T06:44:11.546Z,97977.00
2018-11-04T06:46:42.294Z,97979.00
2018-11-04T06:49:12.782Z,97982.00
2018-11-04T06:51:43.136Z,97983.00
2018-11-04T06:54:13.678Z,97982.00
2018-11-04T06:56:43.975Z,97987.00
2018-11-04T06:59:14.295Z,97986.00
2018-11-04T07:01:45.079Z,97987.00
2018-11-04T07:04:26.111Z,97989.00
2018-11-04T07:06:56.420Z,97991.00
2018-11-04T07:09:26.730Z,97996.00
2018-11-04T07:11:57.263Z,97994.00
2018-11-04T07:14:27.719Z,97993.00
2018-11-04T07:16:58.015Z,98000.00
2018-11-04T07:19:28.313Z,97997.00
2018-11-04T07:21:58.739Z,97993.00
2018-11-04T07:24:29.016Z,97996.00
2018-11-04T07:26:59.204Z,97996.00
2018-11-04T07:29:29.418Z,97990.00
2018-11-04T07:31:59.716Z,97989.00
2018-11-04T07:34:30.445Z,97991.00
2018-11-04T07:37:00.763Z,97986.00
2018-11-04T07:39:31.243Z,97977.00
2018-11-04T07:42:01.816Z,97979.00
2018-11-04T07:44:32.166Z,97974.00
2018-11-04T07:47:02.484Z,97968.00
2018-11-04T07:49:32.971Z,97962.00
2018-11-04T07:52:03.309Z,97962.00
2018-11-04T07:54:33.855Z,97966.00
2018-11-04T07:57:04.079Z,97964.00
2018-11-04T07:59:34.593Z,97958.00
2018-11-04T08:02:05.019Z,97959.00
2018-11-04T08:04:35.424Z,97959.00
2018-11-04T08:07:05.902Z,97959.00
2018-11-04T08:09:36.216Z,97961.00
2018-11-04T08:12:06.821Z,97967.00
2018-11-04T08:14:37.250Z,97966.00
2018-11-04T08:17:07.799Z,97960.00
2018-11-04T08:19:38.009Z,97964.00
2018-11-04T08:22:08.328Z,97960.00
2018-11-04T08:24:38.626Z,97965.00
2018-11-04T08:27:09.086Z,97963.00
2018-11-04T08:29:39.364Z,97961.00
2018-11-04T08:32:09.784Z,97960.00
2018-11-04T08:34:40.134Z,97953.00
2018-11-04T08:37:10.066Z,97951.00
2018-11-04T08:39:40.042Z,97943.00
2018-11-04T08:42:09.978Z,97945.00
2018-11-04T08:44:39.947Z,97943.00
2018-11-04T08:47:09.914Z,97941.00
2018-11-04T08:49:39.856Z,97951.00
2018-11-04T08:52:09.813Z,97951.00
2018-11-04T08:54:39.798Z,97953.00
2018-11-04T08:57:09.836Z,97945.00
2018-11-04T08:59:39.768Z,97950.00
2018-11-04T09:02:10.158Z,97952.00
2018-11-04T09:04:40.666Z,97953.00
2018-11-04T09:07:11.878Z,97955.00
2018-11-04T09:09:42.395Z,97949.00
2018-11-04T09:12:13.171Z,97947.00
2018-11-04T09:14:44.384Z,97951.00
2018-11-04T09:17:15.367Z,97950.00
2018-11-04T09:19:46.359Z,97950.00
2018-11-04T09:22:17.126Z,97951.00
2018-11-04T09:24:48.002Z,97952.00
2018-11-04T09:27:18.947Z,97947.00
2018-11-04T09:29:49.299Z,97950.00
2018-11-04T09:32:19.783Z,97951.00
2018-11-04T09:34:49.862Z,97958.00
2018-11-04T09:37:19.762Z,97957.00
2018-11-04T09:39:49.764Z,97951.00
2018-11-04T09:42:19.937Z,97947.00
2018-11-04T09:44:50.804Z,97949.00
2018-11-04T09:47:21.423Z,97948.00
2018-11-04T09:49:52.048Z,97944.00
2018-11-04T09:52:22.731Z,97933.00
2018-11-04T09:54:53.541Z,97930.00
2018-11-04T09:57:23.984Z,97940.00
2018-11-04T09:59:54.580Z,97942.00
2018-11-04T10:02:25.107Z,97940.00
2018-11-04T10:04:55.751Z,97932.00
2018-11-04T10:07:26.365Z,97935.00
2018-11-04T10:09:56.718Z,97932.00
2018-11-04T10:12:27.143Z,97933.00
2018-11-04T10:14:57.675Z,97931.00
2018-11-04T10:17:28.117Z,97923.00
2018-11-04T10:19:58.690Z,97918.00
2018-11-04T10:22:28.568Z,97914.00
2018-11-04T10:24:59.612Z,97910.00
2018-11-04T10:27:30.285Z,97908.00
2018-11-04T10:30:00.564Z,97904.00
2018-11-04T10:32:31.142Z,97901.00
2018-11-04T10:35:01.508Z,97899.00
2018-11-04T10:37:31.929Z,97895.00
2018-11-04T10:40:02.097Z,97888.00
2018-11-04T10:42:32.442Z,97889.00
2018-11-04T10:45:03.092Z,97889.00
2018-11-04T10:47:33.408Z,97885.00
2018-11-04T10:50:03.983Z,97882.00
2018-11-04T10:52:34.725Z,97884.00
2018-11-04T10:55:05.636Z,97885.00
2018-11-04T10:57:36.042Z,97891.00
2018-11-04T11:00:12.559Z,97890.00
2018-11-04T11:02:43.015Z,97886.00
2018-11-04T11:05:13.451Z,97890.00
2018-11-04T11:07:43.995Z,97887.00
2018-11-04T11:10:14.464Z,97886.00
2018-11-04T11:12:44.951Z,97883.00
2018-11-04T11:15:15.239Z,97881.00
2018-11-04T11:17:45.703Z,97877.00
2018-11-04T11:20:16.174Z,97880.00
2018-11-04T11:22:46.635Z,97880.00
2018-11-04T11:25:16.944Z,97873.00
2018-11-04T11:27:47.397Z,97873.00
2018-11-04T11:30:18.001Z,97872.00
2018-11-04T11:32:48.234Z,97868.00
2018-11-04T11:35:19.334Z,97860.00
2018-11-04T11:37:49.494Z,97855.00
2018-11-04T11:40:19.972Z,97856.00
2018-11-04T11:42:50.592Z,97862.00
2018-11-04T11:45:20.799Z,97858.00
2018-11-04T11:47:51.245Z,97850.00
2018-11-04T11:50:21.628Z,97841.00
2018-11-04T11:52:52.102Z,97842.00
2018-11-04T11:55:22.329Z,97839.00
2018-11-04T11:57:52.748Z,97838.00
2018-11-04T12:00:23.636Z,97836.00
2018-11-04T12:03:00.539Z,97832.00
2018-11-04T12:05:30.776Z,97839.00
2018-11-04T12:08:01.190Z,97840.00
2018-11-04T12:10:31.546Z,97843.00
2018-11-04T12:13:01.863Z,97837.00
2018-11-04T12:15:32.338Z,97832.00
2018-11-04T12:18:02.774Z,97825.00
2018-11-04T12:20:33.278Z,97823.00
2018-11-04T12:23:03.443Z,97818.00
2018-11-04T12:25:33.893Z,97813.00
2018-11-04T12:28:04.293Z,97814.00
2018-11-04T12:30:34.626Z,97808.00
2018-11-04T12:33:04.990Z,97810.00
2018-11-04T12:35:35.407Z,97810.00
2018-11-04T12:38:05.833Z,97813.00
2018-11-04T12:40:36.174Z,97811.00
2018-11-04T12:43:06.545Z,97809.00
2018-11-04T12:45:37.809Z,97812.00
2018-11-04T12:48:08.263Z,97805.00
2018-11-04T12:50:38.723Z,97808.00
2018-11-04T12:53:09.305Z,97799.00
2018-11-04T12:55:39.593Z,97791.00
2018-11-04T12:58:09.932Z,97791.00
2018-11-04T13:00:40.394Z,97784.00
2018-11-04T13:03:10.691Z,97787.00
2018-11-04T13:05:41.058Z,97781.00
2018-11-04T13:08:11.531Z,97786.00
2018-11-04T13:10:42.050Z,97780.00
2018-11-04T13:13:12.380Z,97779.00
2018-11-04T13:15:43.021Z,97775.00
2018-11-04T13:18:13.572Z,97778.00
2018-11-04T13:20:44.120Z,97779.00
2018-11-04T13:23:14.453Z,97785.00
2018-11-04T13:25:45.069Z,97783.00
2018-11-04T13:28:15.508Z,97789.00
2018-11-04T13:30:46.034Z,97790.00
2018-11-04T13:33:16.573Z,97791.00
2018-11-04T13:35:47.027Z,97784.00
2018-11-04T13:38:17.535Z,97783.00
2018-11-04T13:40:47.904Z,97781.00
2018-11-04T13:43:18.246Z,97783.00
2018-11-04T13:45:48.926Z,97778.00
2018-11-04T13:48:19.388Z,97770.00
2018-11-04T13:50:49.715Z,97771.00
2018-11-04T13:53:20.212Z,97761.00
2018-11-04T13:55:50.572Z,97763.00
2018-11-04T13:58:20.804Z,97761.00
2018-11-04T14:00:51.245Z,97763.00
2018-11-04T14:03:21.632Z,97761.00
2018-11-04T14:05:52.115Z,97759.00
2018-11-04T14:08:22.335Z,97754.00
2018-11-04T14:10:52.331Z,97760.00
2018-11-04T14:13:22.372Z,97755.00
2018-11-04T14:15:52.252Z,97757.00
2018-11-04T14:18:22.225Z,97747.00
2018-11-04T14:20:52.638Z,97746.00
2018-11-04T14:23:23.176Z,97750.00
2018-11-04T14:25:53.831Z,97756.00
2018-11-04T14:28:24.235Z,97757.00
2018-11-04T14:30:54.233Z,97756.00
2018-11-04T14:33:24.668Z,97761.00
2018-11-04T14:35:55.102Z,97762.00
2018-11-04T14:38:25.049Z,97767.00
2018-11-04T14:40:55.540Z,97772.00
2018-11-04T14:43:25.704Z,97765.00
2018-11-04T14:45:56.305Z,97762.00
2018-11-04T14:48:26.713Z,97760.00
2018-11-04T14:50:57.275Z,97763.00
2018-11-04T14:53:27.618Z,97757.00
2018-11-04T14:55:58.222Z,97753.00
2018-11-04T14:58:28.616Z,97757.00
2018-11-04T15:00:59.113Z,97760.00
2018-11-04T15:03:29.582Z,97756.00
2018-11-04T15:05:59.848Z,97756.00
2018-11-04T15:08:30.103Z,97753.00
2018-11-04T15:11:00.742Z,97756.00
2018-11-04T15:13:31.062Z,97756.00
2018-11-04T15:16:01.379Z,97760.00
2018-11-04T15:18:31.732Z,97756.00
2018-11-04T15:21:07.154Z,97758.00
2018-11-04T15:23:37.361Z,97760.00
2018-11-04T15:26:08.395Z,97763.00
2018-11-04T15:28:39.179Z,97760.00
2018-11-04T15:31:09.363Z,97760.00
2018-11-04T15:33:39.808Z,97759.00
2018-11-04T15:36:09.899Z,97757.00
2018-11-04T15:38:40.292Z,97761.00
2018-11-04T15:41:10.714Z,97764.00
2018-11-04T15:43:40.957Z,97767.00
2018-11-04T15:46:11.445Z,97768.00
2018-11-04T15:48:41.690Z,97771.00
2018-11-04T15:51:12.311Z,97767.00
2018-11-04T15:53:42.772Z,97764.00
2018-11-04T15:56:13.015Z,97768.00
2018-11-04T15:58:43.461Z,97765.00
2018-11-04T16:01:13.914Z,97766.00
2018-11-04T16:03:44.445Z,97762.00
2018-11-04T16:06:15.091Z,97768.00
2018-11-04T16:08:45.383Z,97766.00
2018-11-04T16:11:15.623Z,97764.00
2018-11-04T16:13:45.920Z,97765.00
2018-11-04T16:16:16.266Z,97765.00
2018-11-04T16:18:46.604Z,97770.00
2018-11-04T16:21:16.920Z,97770.00
2018-11-04T16:23:47.341Z,97771.00
2018-11-04T16:26:17.800Z,97770.00
2018-11-04T16:28:48.388Z,97773.00
2018-11-04T16:31:21.716Z,97772.00
2018-11-04T16:33:51.718Z,97774.00
2018-11-04T16:36:21.846Z,97776.00
2018-11-04T16:38:51.831Z,97776.00
2018-11-04T16:41:21.809Z,97776.00
2018-11-04T16:43:52.003Z,97775.00
2018-11-04T16:46:22.057Z,97774.00
2018-11-04T16:48:52.217Z,97773.00
2018-11-04T16:51:22.204Z,97775.00
2018-11-04T16:53:52.596Z,97780.00
2018-11-04T16:56:22.970Z,97782.00
2018-11-04T16:58:53.439Z,97778.00
2018-11-04T17:01:23.706Z,97780.00
2018-11-04T17:03:54.124Z,97776.00
2018-11-04T17:06:24.287Z,97770.00
2018-11-04T17:08:54.900Z,97769.00
2018-11-04T17:11:29.654Z,97776.00
2018-11-04T17:14:00.102Z,97777.00
2018-11-04T17:16:30.137Z,97776.00
2018-11-04T17:19:00.157Z,97776.00
2018-11-04T17:21:30.177Z,97782.00
2018-11-04T17:24:00.192Z,97782.00
2018-11-04T17:26:30.236Z,97779.00
2018-11-04T17:29:00.287Z,97777.00
2018-11-04T17:31:30.187Z,97781.00
2018-11-04T17:34:00.479Z,97775.00
2018-11-04T17:36:30.959Z,97774.00
2018-11-04T17:39:01.582Z,97777.00
2018-11-04T17:41:31.913Z,97783.00
2018-11-04T17:44:02.347Z,97783.00
2018-11-04T17:46:32.639Z,97775.00
2018-11-04T17:49:03.074Z,97782.00
2018-11-04T17:51:34.393Z,97786.00
2018-11-04T17:54:04.819Z,97788.00
2018-11-04T17:56:36.577Z,97788.00
2018-11-04T17:59:06.948Z,97791.00
2018-11-04T18:01:37.487Z,97793.00
2018-11-04T18:04:08.085Z,97797.00
2018-11-04T18:06:38.622Z,97797.00
2018-11-04T18:09:10.918Z,97794.00
2018-11-04T18:11:41.494Z,97800.00
2018-11-04T18:14:12.928Z,97795.00
2018-11-04T18:16:43.424Z,97793.00
2018-11-04T18:19:13.927Z,97793.00
2018-11-04T18:21:44.264Z,97797.00
2018-11-04T18:24:15.940Z,97794.00
2018-11-04T18:26:46.459Z,97794.00
2018-11-04T18:29:17.017Z,97795.00
2018-11-04T18:31:47.496Z,97803.00
2018-11-04T18:34:17.756Z,97793.00
2018-11-04T18:36:48.187Z,97791.00
2018-11-04T18:39:18.464Z,97791.00
2018-11-04T18:41:48.821Z,97793.00
2018-11-04T18:44:19.469Z,97790.00
2018-11-04T18:46:50.338Z,97796.00
2018-11-04T18:49:21.656Z,97800.00
2018-11-04T18:51:52.519Z,97790.00
2018-11-04T18:54:23.446Z,97790.00
2018-11-04T18:56:54.198Z,97792.00
2018-11-04T18:59:24.254Z,97788.00
2018-11-04T19:01:54.226Z,97783.00
2018-11-04T19:04:24.171Z,97784.00
2018-11-04T19:06:54.105Z,97789.00
2018-11-04T19:09:24.076Z,97796.00
2018-11-04T19:11:54.171Z,97797.00
2018-11-04T19:14:23.998Z,97791.00
2018-11-04T19:16:54.017Z,97788.00
2018-11-04T19:19:23.989Z,97788.00
2018-11-04T19:21:54.024Z,97796.00
2018-11-04T19:24:24.047Z,97796.00
2018-11-04T19:26:54.097Z,97788.00
2018-11-04T19:29:24.148Z,97781.00
2018-11-04T19:31:54.130Z,97792.00
2018-11-04T19:34:24.091Z,97797.00
2018-11-04T19:36:54.126Z,97800.00
2018-11-04T19:39:24.177Z,97796.00
2018-11-04T19:41:54.151Z,97799.00
2018-11-04T19:44:24.107Z,97797.00
2018-11-04T19:46:54.092Z,97799.00
2018-11-04T19:49:24.997Z,97792.00
2018-11-04T19:51:54.978Z,97794.00
2018-11-04T19:54:24.993Z,97797.00
2018-11-04T19:56:54.953Z,97800.00
2018-11-04T19:59:24.946Z,97803.00
2018-11-04T20:01:55.004Z,97801.00
2018-11-04T20:04:25.024Z,97801.00
2018-11-04T20:06:55.020Z,97801.00
2018-11-04T20:09:25.030Z,97801.00
2018-11-04T20:11:54.999Z,97801.00
2018-11-04T20:14:25.537Z,97798.00
2018-11-04T20:16:55.595Z,97803.00
2018-11-04T20:19:30.820Z,97804.00
2018-11-04T20:22:00.735Z,97804.00
2018-11-04T20:24:35.796Z,97800.00
2018-11-04T20:27:05.776Z,97804.00
2018-11-04T20:29:35.803Z,97803.00
2018-11-04T20:32:10.898Z,97810.00
2018-11-04T20:34:40.897Z,97807.00
2018-11-04T20:37:10.864Z,97803.00
2018-11-04T20:39:45.792Z,97801.00
2018-11-04T20:42:15.847Z,97797.00
2018-11-04T20:44:46.949Z,97793.00
2018-11-04T20:47:16.981Z,97794.00
2018-11-04T20:49:52.075Z,97792.00
2018-11-04T20:52:22.052Z,97795.00
2018-11-04T20:54:52.072Z,97788.00
2018-11-04T20:57:27.121Z,97787.00
2018-11-04T20:59:57.146Z,97786.00
2018-11-04T21:02:27.398Z,97789.00
2018-11-04T21:04:57.475Z,97782.00
2018-11-04T21:07:27.475Z,97777.00
2018-11-04T21:09:57.656Z,97778.00
2018-11-04T21:12:27.603Z,97779.00
2018-11-04T21:14:57.739Z,97774.00
2018-11-04T21:17:28.445Z,97770.00
2018-11-04T21:19:58.766Z,97769.00
2018-11-04T21:22:29.145Z,97763.00
2018-11-04T21:24:59.426Z,97765.00
2018-11-04T21:27:29.947Z,97765.00
2018-11-04T21:30:00.196Z,97763.00
2018-11-04T21:32:30.566Z,97749.00
2018-11-04T21:35:00.992Z,97755.00
2018-11-04T21:37:31.628Z,97755.00
2018-11-04T21:40:02.317Z,97754.00
2018-11-04T21:42:33.033Z,97751.00
2018-11-04T21:45:03.098Z,97752.00
2018-11-04T21:47:33.533Z,97751.00
2018-11-04T21:50:04.098Z,97746.00
2018-11-04T21:52:34.529Z,97741.00
2018-11-04T21:55:05.207Z,97745.00
2018-11-04T21:57:35.784Z,97745.00
2018-11-04T22:00:08.162Z,97742.00
2018-11-04T22:02:38.405Z,97743.00
2018-11-04T22:05:09.380Z,97740.00
2018-11-04T22:07:40.376Z,97738.00
2018-11-04T22:10:13.866Z,97740.00
2018-11-04T22:12:44.391Z,97742.00
2018-11-04T22:15:14.790Z,97740.00
2018-11-04T22:17:45.151Z,97738.00
2018-11-04T22:20:15.652Z,97736.00
2018-11-04T22:22:46.046Z,97730.00
2018-11-04T22:25:16.444Z,97734.00
2018-11-04T22:27:46.888Z,97732.00
2018-11-04T22:30:17.496Z,97726.00
2018-11-04T22:32:48.165Z,97723.00
2018-11-04T22:35:18.437Z,97730.00
2018-11-04T22:37:48.843Z,97729.00
2018-11-04T22:40:19.286Z,97725.00
2018-11-04T22:42:49.435Z,97736.00
2018-11-04T22:45:19.931Z,97736.00
2018-11-04T22:47:50.481Z,97735.00
2018-11-04T22:50:20.884Z,97733.00
2018-11-04T22:52:51.328Z,97740.00
2018-11-04T22:55:21.731Z,97733.00
2018-11-04T22:57:52.222Z,97733.00
2018-11-04T23:00:28.011Z,97728.00
2018-11-04T23:02:58.520Z,97732.00
2018-11-04T23:05:29.136Z,97732.00
2018-11-04T23:07:59.318Z,97731.00
2018-11-04T23:10:29.768Z,97734.00
2018-11-04T23:13:00.042Z,97732.00
2018-11-04T23:15:30.268Z,97734.00
2018-11-04T23:18:00.576Z,97736.00
2018-11-04T23:20:31.011Z,97728.00
2018-11-04T23:23:01.417Z,97728.00
2018-11-04T23:25:31.982Z,97729.00
2018-11-04T23:28:02.246Z,97734.00
2018-11-04T23:30:32.731Z,97737.00
2018-11-04T23:33:03.310Z,97731.00
2018-11-04T23:35:33.652Z,97729.00
2018-11-04T23:38:04.090Z,97727.00
2018-11-04T23:40:34.853Z,97729.00
2018-11-04T23:43:05.452Z,97730.00
2018-11-04T23:45:35.648Z,97726.00
2018-11-04T23:48:06.153Z,97726.00
2018-11-04T23:50:37.046Z,97727.00
2018-11-04T23:53:07.644Z,97729.00
2018-11-04T23:55:38.118Z,97723.00
2018-11-04T23:58:10.130Z,97730.00
